sensor_id;sensor_type;location;lat;lon;timestamp;pressure;altitude;pressure_sealevel;temperature;humidity
33845;BME280;20145;43.118;25.694;2023-04-10T00:02:18;99719.91;;;7.86;78.74
33845;BME280;20145;43.118;25.694;2023-04-10T00:04:43;99726.75;;;7.84;79.26
33845;BME280;20145;43.118;25.694;2023-04-10T00:07:10;99713.88;;;7.72;79.05
33845;BME280;20145;43.118;25.694;2023-04-10T00:09:36;99719.88;;;7.71;78.37
33845;BME280;20145;43.118;25.694;2023-04-10T00:12:01;99715.56;;;7.65;78.78
33845;BME280;20145;43.118;25.694;2023-04-10T00:14:27;99718.09;;;7.57;78.81
33845;BME280;20145;43.118;25.694;2023-04-10T00:16:53;99714.63;;;7.52;78.78
33845;BME280;20145;43.118;25.694;2023-04-10T00:19:18;99712.94;;;7.51;79.04
33845;BME280;20145;43.118;25.694;2023-04-10T00:21:44;99712.00;;;7.45;78.99
33845;BME280;20145;43.118;25.694;2023-04-10T00:24:10;99708.56;;;7.43;79.69
33845;BME280;20145;43.118;25.694;2023-04-10T00:26:36;99712.00;;;7.40;80.08
33845;BME280;20145;43.118;25.694;2023-04-10T00:29:02;99713.69;;;7.40;79.37
33845;BME280;20145;43.118;25.694;2023-04-10T00:31:28;99713.66;;;7.33;79.34
33845;BME280;20145;43.118;25.694;2023-04-10T00:33:54;99708.53;;;7.30;79.77
33845;BME280;20145;43.118;25.694;2023-04-10T00:36:19;99708.50;;;7.24;80.08
33845;BME280;20145;43.118;25.694;2023-04-10T00:38:46;99704.16;;;7.17;79.79
33845;BME280;20145;43.118;25.694;2023-04-10T00:41:12;99704.09;;;7.09;80.13
33845;BME280;20145;43.118;25.694;2023-04-10T00:43:38;99706.66;;;7.06;80.44
33845;BME280;20145;43.118;25.694;2023-04-10T00:46:04;99696.31;;;6.94;79.62
33845;BME280;20145;43.118;25.694;2023-04-10T00:48:31;99698.84;;;6.88;79.79
33845;BME280;20145;43.118;25.694;2023-04-10T00:50:58;99702.19;;;6.81;80.21
33845;BME280;20145;43.118;25.694;2023-04-10T00:53:24;99696.13;;;6.69;79.19
33845;BME280;20145;43.118;25.694;2023-04-10T00:55:50;99698.63;;;6.60;79.87
33845;BME280;20145;43.118;25.694;2023-04-10T00:58:17;99699.38;;;6.53;80.05
33845;BME280;20145;43.118;25.694;2023-04-10T01:00:43;99691.63;;;6.45;80.27
33845;BME280;20145;43.118;25.694;2023-04-10T01:03:09;99690.75;;;6.42;81.12
33845;BME280;20145;43.118;25.694;2023-04-10T01:05:43;99698.41;;;6.39;81.60
33845;BME280;20145;43.118;25.694;2023-04-10T01:08:27;99692.44;;;6.38;82.23
33845;BME280;20145;43.118;25.694;2023-04-10T01:11:09;99686.41;;;6.33;81.77
33845;BME280;20145;43.118;25.694;2023-04-10T01:16:24;99679.44;;;6.18;81.20
33845;BME280;20145;43.118;25.694;2023-04-10T01:19:03;99689.69;;;6.18;81.47
33845;BME280;20145;43.118;25.694;2023-04-10T01:21:34;99684.53;;;6.15;81.76
33845;BME280;20145;43.118;25.694;2023-04-10T01:27:08;99681.88;;;6.09;82.09
33845;BME280;20145;43.118;25.694;2023-04-10T01:29:41;99693.84;;;6.07;82.31
33845;BME280;20145;43.118;25.694;2023-04-10T01:32:12;99689.53;;;6.06;82.60
33845;BME280;20145;43.118;25.694;2023-04-10T01:34:48;99692.88;;;6.00;82.92
33845;BME280;20145;43.118;25.694;2023-04-10T01:37:26;99688.59;;;5.96;82.30
33845;BME280;20145;43.118;25.694;2023-04-10T01:39:58;99689.41;;;5.95;82.31
33845;BME280;20145;43.118;25.694;2023-04-10T01:42:30;99680.88;;;5.93;82.73
33845;BME280;20145;43.118;25.694;2023-04-10T01:44:56;99689.34;;;5.91;82.52
33845;BME280;20145;43.118;25.694;2023-04-10T01:47:23;99677.31;;;5.82;82.75
33845;BME280;20145;43.118;25.694;2023-04-10T01:49:50;99687.59;;;5.87;82.31
33845;BME280;20145;43.118;25.694;2023-04-10T01:52:17;99689.28;;;5.86;82.01
33845;BME280;20145;43.118;25.694;2023-04-10T01:54:44;99684.94;;;5.79;82.90
33845;BME280;20145;43.118;25.694;2023-04-10T01:57:12;99689.19;;;5.78;82.43
33845;BME280;20145;43.118;25.694;2023-04-10T01:59:39;99685.72;;;5.72;82.41
33845;BME280;20145;43.118;25.694;2023-04-10T02:02:05;99687.38;;;5.68;82.62
33845;BME280;20145;43.118;25.694;2023-04-10T02:04:35;99682.16;;;5.61;83.51
33845;BME280;20145;43.118;25.694;2023-04-10T02:07:03;99690.69;;;5.61;83.27
33845;BME280;20145;43.118;25.694;2023-04-10T02:09:39;99682.97;;;5.58;83.46
33845;BME280;20145;43.118;25.694;2023-04-10T02:12:13;99680.34;;;5.52;84.28
33845;BME280;20145;43.118;25.694;2023-04-10T02:14:44;99686.31;;;5.52;84.09
33845;BME280;20145;43.118;25.694;2023-04-10T02:17:13;99685.44;;;5.49;84.54
33845;BME280;20145;43.118;25.694;2023-04-10T02:19:41;99682.00;;;5.48;84.72
33845;BME280;20145;43.118;25.694;2023-04-10T02:22:07;99680.31;;;5.50;85.00
33845;BME280;20145;43.118;25.694;2023-04-10T02:24:33;99675.25;;;5.52;84.33
33845;BME280;20145;43.118;25.694;2023-04-10T02:26:59;99679.53;;;5.54;84.47
33845;BME280;20145;43.118;25.694;2023-04-10T02:29:25;99681.31;;;5.62;84.54
33845;BME280;20145;43.118;25.694;2023-04-10T02:31:51;99670.25;;;5.63;84.23
33845;BME280;20145;43.118;25.694;2023-04-10T02:34:16;99678.03;;;5.72;84.17
33845;BME280;20145;43.118;25.694;2023-04-10T02:36:42;99685.78;;;5.76;83.93
33845;BME280;20145;43.118;25.694;2023-04-10T02:39:08;99685.81;;;5.79;83.62
33845;BME280;20145;43.118;25.694;2023-04-10T02:41:33;99685.81;;;5.81;83.83
33845;BME280;20145;43.118;25.694;2023-04-10T02:43:59;99685.88;;;5.86;84.11
33845;BME280;20145;43.118;25.694;2023-04-10T02:46:24;99683.34;;;5.90;84.92
33845;BME280;20145;43.118;25.694;2023-04-10T02:48:54;99666.25;;;5.86;84.70
33845;BME280;20145;43.118;25.694;2023-04-10T02:51:19;99676.53;;;5.89;84.57
33845;BME280;20145;43.118;25.694;2023-04-10T02:53:46;99680.78;;;5.90;84.32
33845;BME280;20145;43.118;25.694;2023-04-10T02:56:12;99674.81;;;5.88;84.64
33845;BME280;20145;43.118;25.694;2023-04-10T02:58:38;99678.22;;;5.89;84.83
33845;BME280;20145;43.118;25.694;2023-04-10T03:01:05;99683.31;;;5.87;84.14
33845;BME280;20145;43.118;25.694;2023-04-10T03:03:34;99685.88;;;5.87;84.42
33845;BME280;20145;43.118;25.694;2023-04-10T03:06:00;99674.69;;;5.79;84.95
33845;BME280;20145;43.118;25.694;2023-04-10T03:08:25;99658.38;;;5.71;84.67
33845;BME280;20145;43.118;25.694;2023-04-10T03:10:51;99699.66;;;5.94;84.87
33845;BME280;20145;43.118;25.694;2023-04-10T03:13:16;99685.19;;;5.96;84.64
33845;BME280;20145;43.118;25.694;2023-04-10T03:15:42;99682.69;;;6.02;84.67
33845;BME280;20145;43.118;25.694;2023-04-10T03:18:07;99693.00;;;6.10;84.13
33845;BME280;20145;43.118;25.694;2023-04-10T03:20:36;99695.59;;;6.13;84.52
33845;BME280;20145;43.118;25.694;2023-04-10T03:23:04;99692.22;;;6.17;84.19
33845;BME280;20145;43.118;25.694;2023-04-10T03:25:30;99685.34;;;6.13;84.94
33845;BME280;20145;43.118;25.694;2023-04-10T03:27:57;99692.16;;;6.12;85.43
33845;BME280;20145;43.118;25.694;2023-04-10T03:30:23;99695.56;;;6.10;85.83
33845;BME280;20145;43.118;25.694;2023-04-10T03:32:48;99694.69;;;6.09;86.22
33845;BME280;20145;43.118;25.694;2023-04-10T03:35:14;99692.88;;;6.00;85.63
33845;BME280;20145;43.118;25.694;2023-04-10T03:37:40;99697.84;;;5.90;86.12
33845;BME280;20145;43.118;25.694;2023-04-10T03:40:07;99696.09;;;5.84;86.65
33845;BME280;20145;43.118;25.694;2023-04-10T03:42:33;99689.25;;;5.83;86.85
33845;BME280;20145;43.118;25.694;2023-04-10T03:44:59;99698.56;;;5.78;86.54
33845;BME280;20145;43.118;25.694;2023-04-10T03:47:26;99696.03;;;5.76;87.54
33845;BME280;20145;43.118;25.694;2023-04-10T03:49:52;99699.34;;;5.71;86.78
33845;BME280;20145;43.118;25.694;2023-04-10T03:52:18;99701.09;;;5.75;87.43
33845;BME280;20145;43.118;25.694;2023-04-10T03:54:43;99696.84;;;5.74;87.92
33845;BME280;20145;43.118;25.694;2023-04-10T03:57:09;99703.69;;;5.78;89.12
33845;BME280;20145;43.118;25.694;2023-04-10T03:59:35;99645.47;;;5.60;88.65
33845;BME280;20145;43.118;25.694;2023-04-10T04:02:00;99704.03;;;6.04;88.96
33845;BME280;20145;43.118;25.694;2023-04-10T04:04:26;99703.25;;;6.10;87.83
33845;BME280;20145;43.118;25.694;2023-04-10T04:06:52;99705.84;;;6.14;86.59
33845;BME280;20145;43.118;25.694;2023-04-10T04:09:18;99693.09;;;6.19;86.73
33845;BME280;20145;43.118;25.694;2023-04-10T04:11:43;99701.69;;;6.25;86.36
33845;BME280;20145;43.118;25.694;2023-04-10T04:14:09;99706.88;;;6.32;85.83
33845;BME280;20145;43.118;25.694;2023-04-10T04:16:34;99684.63;;;6.28;86.40
33845;BME280;20145;43.118;25.694;2023-04-10T04:19:00;99697.66;;;6.51;85.97
33845;BME280;20145;43.118;25.694;2023-04-10T04:21:25;99706.41;;;6.73;86.19
33845;BME280;20145;43.118;25.694;2023-04-10T04:23:51;99704.84;;;6.91;85.31
33845;BME280;20145;43.118;25.694;2023-04-10T04:26:17;99705.81;;;7.07;84.61
33845;BME280;20145;43.118;25.694;2023-04-10T04:28:42;99709.31;;;7.20;83.59
33845;BME280;20145;43.118;25.694;2023-04-10T04:31:08;99717.97;;;7.39;83.04
33845;BME280;20145;43.118;25.694;2023-04-10T04:33:33;99712.06;;;7.52;82.73
33845;BME280;20145;43.118;25.694;2023-04-10T04:35:59;99709.59;;;7.71;82.81
33845;BME280;20145;43.118;25.694;2023-04-10T04:38:25;99717.34;;;7.85;81.89
33845;BME280;20145;43.118;25.694;2023-04-10T04:40:50;99718.22;;;7.88;81.98
33845;BME280;20145;43.118;25.694;2023-04-10T04:43:16;99716.56;;;8.01;81.76
33845;BME280;20145;43.118;25.694;2023-04-10T04:45:41;99717.44;;;8.20;81.26
33845;BME280;20145;43.118;25.694;2023-04-10T04:48:07;99714.13;;;8.41;81.68
33845;BME280;20145;43.118;25.694;2023-04-10T04:50:32;99715.88;;;8.62;79.83
33845;BME280;20145;43.118;25.694;2023-04-10T04:52:58;99711.56;;;8.82;79.81
33845;BME280;20145;43.118;25.694;2023-04-10T04:55:24;99716.69;;;9.11;78.47
33845;BME280;20145;43.118;25.694;2023-04-10T04:57:50;99718.34;;;9.42;77.56
33845;BME280;20145;43.118;25.694;2023-04-10T05:00:16;99712.28;;;9.63;76.83
33845;BME280;20145;43.118;25.694;2023-04-10T05:02:41;99718.22;;;9.88;76.12
33845;BME280;20145;43.118;25.694;2023-04-10T05:05:07;99725.91;;;9.94;75.02
33845;BME280;20145;43.118;25.694;2023-04-10T05:07:32;99725.06;;;9.89;75.41
33845;BME280;20145;43.118;25.694;2023-04-10T05:09:58;99721.63;;;9.93;75.48
33845;BME280;20145;43.118;25.694;2023-04-10T05:12:23;99724.13;;;10.08;75.65
33845;BME280;20145;43.118;25.694;2023-04-10T05:14:49;99726.69;;;10.13;73.98
33845;BME280;20145;43.118;25.694;2023-04-10T05:17:15;99728.38;;;10.17;74.63
33845;BME280;20145;43.118;25.694;2023-04-10T05:19:41;99724.91;;;10.19;74.63
33845;BME280;20145;43.118;25.694;2023-04-10T05:22:07;99725.78;;;10.23;73.79
33845;BME280;20145;43.118;25.694;2023-04-10T05:24:32;99725.78;;;10.29;73.65
33845;BME280;20145;43.118;25.694;2023-04-10T05:26:58;99726.44;;;10.56;73.28
33845;BME280;20145;43.118;25.694;2023-04-10T05:29:23;99735.66;;;10.89;71.24
33845;BME280;20145;43.118;25.694;2023-04-10T05:31:49;99733.63;;;11.26;69.91
33845;BME280;20145;43.118;25.694;2023-04-10T05:34:15;99730.88;;;11.45;68.01
33845;BME280;20145;43.118;25.694;2023-04-10T05:36:41;99734.97;;;11.61;68.21
33845;BME280;20145;43.118;25.694;2023-04-10T05:39:07;99736.47;;;11.80;66.58
33845;BME280;20145;43.118;25.694;2023-04-10T05:41:33;99734.63;;;11.93;65.50
33845;BME280;20145;43.118;25.694;2023-04-10T05:43:58;99735.22;;;12.14;64.35
33845;BME280;20145;43.118;25.694;2023-04-10T05:46:24;99739.50;;;12.18;62.46
33845;BME280;20145;43.118;25.694;2023-04-10T05:48:49;99737.69;;;12.24;63.32
33845;BME280;20145;43.118;25.694;2023-04-10T05:51:15;99743.72;;;12.25;61.77
33845;BME280;20145;43.118;25.694;2023-04-10T05:53:41;99732.59;;;12.20;62.11
33845;BME280;20145;43.118;25.694;2023-04-10T05:56:07;99741.16;;;12.22;62.47
33845;BME280;20145;43.118;25.694;2023-04-10T05:58:32;99742.81;;;12.27;61.36
33845;BME280;20145;43.118;25.694;2023-04-10T06:00:58;99741.91;;;12.32;64.27
33845;BME280;20145;43.118;25.694;2023-04-10T06:03:24;99724.03;;;12.15;66.25
33845;BME280;20145;43.118;25.694;2023-04-10T06:05:52;99736.28;;;11.99;66.50
33845;BME280;20145;43.118;25.694;2023-04-10T06:08:17;99734.03;;;11.70;68.94
33845;BME280;20145;43.118;25.694;2023-04-10T06:10:45;99732.28;;;11.73;68.11
33845;BME280;20145;43.118;25.694;2023-04-10T06:13:11;99730.53;;;11.75;69.31
33845;BME280;20145;43.118;25.694;2023-04-10T06:15:36;99731.47;;;11.68;67.55
33845;BME280;20145;43.118;25.694;2023-04-10T06:18:02;99738.63;;;11.42;67.53
33845;BME280;20145;43.118;25.694;2023-04-10T06:20:28;99740.28;;;11.47;67.36
33845;BME280;20145;43.118;25.694;2023-04-10T06:22:53;99725.56;;;11.58;67.77
33845;BME280;20145;43.118;25.694;2023-04-10T06:25:19;99733.19;;;11.68;67.52
33845;BME280;20145;43.118;25.694;2023-04-10T06:27:44;99729.56;;;11.82;66.87
33845;BME280;20145;43.118;25.694;2023-04-10T06:30:10;99742.47;;;11.86;66.14
33845;BME280;20145;43.118;25.694;2023-04-10T06:32:36;99731.25;;;11.90;64.94
33845;BME280;20145;43.118;25.694;2023-04-10T06:35:01;99735.34;;;12.06;65.88
33845;BME280;20145;43.118;25.694;2023-04-10T06:37:28;99729.28;;;12.09;62.87
33845;BME280;20145;43.118;25.694;2023-04-10T06:40:06;99730.13;;;12.09;64.00
33845;BME280;20145;43.118;25.694;2023-04-10T06:42:32;99736.78;;;12.28;62.77
33845;BME280;20145;43.118;25.694;2023-04-10T06:44:58;99739.22;;;12.38;61.57
33845;BME280;20145;43.118;25.694;2023-04-10T06:47:24;99735.69;;;12.43;61.54
33845;BME280;20145;43.118;25.694;2023-04-10T06:49:50;99745.03;;;12.54;60.61
33845;BME280;20145;43.118;25.694;2023-04-10T06:52:16;99745.91;;;12.54;59.18
33845;BME280;20145;43.118;25.694;2023-04-10T06:54:42;99738.88;;;12.61;59.75
33845;BME280;20145;43.118;25.694;2023-04-10T06:57:07;99742.38;;;12.60;61.13
33845;BME280;20145;43.118;25.694;2023-04-10T06:59:33;99746.75;;;12.55;61.23
33845;BME280;20145;43.118;25.694;2023-04-10T07:02:01;99743.84;;;12.76;61.02
33845;BME280;20145;43.118;25.694;2023-04-10T07:04:27;99753.69;;;13.07;59.12
33845;BME280;20145;43.118;25.694;2023-04-10T07:06:52;99738.72;;;12.71;58.91
33845;BME280;20145;43.118;25.694;2023-04-10T07:09:18;99756.06;;;12.66;59.74
33845;BME280;20145;43.118;25.694;2023-04-10T07:11:44;99754.94;;;12.83;59.54
33845;BME280;20145;43.118;25.694;2023-04-10T07:14:09;99732.69;;;12.71;59.23
33845;BME280;20145;43.118;25.694;2023-04-10T07:16:35;99754.84;;;12.90;59.04
33845;BME280;20145;43.118;25.694;2023-04-10T07:19:01;99750.66;;;12.82;60.15
33845;BME280;20145;43.118;25.694;2023-04-10T07:21:27;99742.34;;;12.61;59.46
33845;BME280;20145;43.118;25.694;2023-04-10T07:23:53;99745.91;;;12.54;61.10
33845;BME280;20145;43.118;25.694;2023-04-10T07:26:18;99746.69;;;12.59;61.18
33845;BME280;20145;43.118;25.694;2023-04-10T07:28:44;99752.56;;;12.69;59.09
33845;BME280;20145;43.118;25.694;2023-04-10T07:31:10;99754.13;;;12.81;59.01
33845;BME280;20145;43.118;25.694;2023-04-10T07:33:37;99744.75;;;12.73;60.58
33845;BME280;20145;43.118;25.694;2023-04-10T07:36:03;99742.22;;;12.69;58.97
33845;BME280;20145;43.118;25.694;2023-04-10T07:38:30;99738.28;;;13.01;57.90
33845;BME280;20145;43.118;25.694;2023-04-10T07:40:57;99741.16;;;13.35;58.51
33845;BME280;20145;43.118;25.694;2023-04-10T07:43:23;99724.06;;;13.25;55.79
33845;BME280;20145;43.118;25.694;2023-04-10T07:45:48;99742.91;;;13.34;56.85
33845;BME280;20145;43.118;25.694;2023-04-10T07:48:14;99734.41;;;13.26;56.36
33845;BME280;20145;43.118;25.694;2023-04-10T07:50:40;99735.13;;;13.33;55.66
33845;BME280;20145;43.118;25.694;2023-04-10T07:53:05;99730.78;;;13.35;56.70
33845;BME280;20145;43.118;25.694;2023-04-10T07:55:40;99730.97;;;13.26;56.04
33845;BME280;20145;43.118;25.694;2023-04-10T07:58:06;99737.06;;;13.20;55.19
33845;BME280;20145;43.118;25.694;2023-04-10T08:00:32;99725.72;;;13.29;56.54
33845;BME280;20145;43.118;25.694;2023-04-10T08:02:58;99727.56;;;13.22;56.41
33845;BME280;20145;43.118;25.694;2023-04-10T08:05:23;99723.16;;;13.24;56.55
33845;BME280;20145;43.118;25.694;2023-04-10T08:07:49;99727.41;;;13.31;56.04
33845;BME280;20145;43.118;25.694;2023-04-10T08:10:15;99722.22;;;13.31;56.17
33845;BME280;20145;43.118;25.694;2023-04-10T08:12:41;99724.13;;;13.68;56.67
33845;BME280;20145;43.118;25.694;2023-04-10T08:15:07;99731.72;;;14.19;54.73
33845;BME280;20145;43.118;25.694;2023-04-10T08:17:32;99731.13;;;14.47;54.76
33845;BME280;20145;43.118;25.694;2023-04-10T08:19:59;99733.38;;;14.62;53.53
33845;BME280;20145;43.118;25.694;2023-04-10T08:22:24;99731.28;;;14.77;54.63
33845;BME280;20145;43.118;25.694;2023-04-10T08:24:50;99726.03;;;14.80;54.51
33845;BME280;20145;43.118;25.694;2023-04-10T08:27:15;99722.09;;;14.99;52.07
33845;BME280;20145;43.118;25.694;2023-04-10T08:29:41;99721.59;;;15.19;51.50
33845;BME280;20145;43.118;25.694;2023-04-10T08:32:07;99714.47;;;15.26;51.39
33845;BME280;20145;43.118;25.694;2023-04-10T08:34:33;99714.78;;;15.46;50.42
33845;BME280;20145;43.118;25.694;2023-04-10T08:36:58;99717.09;;;15.57;51.03
33845;BME280;20145;43.118;25.694;2023-04-10T08:39:24;99710.56;;;15.44;50.19
33845;BME280;20145;43.118;25.694;2023-04-10T08:41:49;99695.56;;;15.52;49.52
33845;BME280;20145;43.118;25.694;2023-04-10T08:44:16;99708.19;;;15.66;49.73
33845;BME280;20145;43.118;25.694;2023-04-10T08:46:43;99701.00;;;15.77;49.12
33845;BME280;20145;43.118;25.694;2023-04-10T08:49:16;99693.56;;;15.93;49.21
33845;BME280;20145;43.118;25.694;2023-04-10T08:51:51;99689.72;;;16.06;49.57
33845;BME280;20145;43.118;25.694;2023-04-10T08:54:32;99680.31;;;16.57;46.77
33845;BME280;20145;43.118;25.694;2023-04-10T08:56:58;99672.22;;;16.11;48.06
33845;BME280;20145;43.118;25.694;2023-04-10T08:59:29;99674.94;;;16.35;48.19
33845;BME280;20145;43.118;25.694;2023-04-10T09:01:57;99678.06;;;16.72;46.97
33845;BME280;20145;43.118;25.694;2023-04-10T09:04:24;99667.63;;;16.74;47.24
33845;BME280;20145;43.118;25.694;2023-04-10T09:06:51;99665.16;;;16.69;46.97
33845;BME280;20145;43.118;25.694;2023-04-10T09:09:17;99664.44;;;16.64;47.38
33845;BME280;20145;43.118;25.694;2023-04-10T09:14:27;99646.81;;;16.46;47.92
33845;BME280;20145;43.118;25.694;2023-04-10T09:17:18;99650.16;;;16.78;48.41
33845;BME280;20145;43.118;25.694;2023-04-10T09:19:46;99649.09;;;16.28;48.45
33845;BME280;20145;43.118;25.694;2023-04-10T09:22:12;99648.47;;;16.77;47.60
33845;BME280;20145;43.118;25.694;2023-04-10T09:24:40;99638.09;;;16.47;48.24
33845;BME280;20145;43.118;25.694;2023-04-10T09:27:07;99634.69;;;16.45;48.71
33845;BME280;20145;43.118;25.694;2023-04-10T09:29:45;99621.03;;;16.38;47.80
33845;BME280;20145;43.118;25.694;2023-04-10T09:35:01;99624.78;;;16.56;47.34
33845;BME280;20145;43.118;25.694;2023-04-10T09:37:34;99625.00;;;16.77;48.21
33845;BME280;20145;43.118;25.694;2023-04-10T09:40:01;99612.75;;;16.25;48.40
33845;BME280;20145;43.118;25.694;2023-04-10T09:42:34;99612.41;;;16.36;48.86
33845;BME280;20145;43.118;25.694;2023-04-10T09:45:02;99609.00;;;16.08;50.17
33845;BME280;20145;43.118;25.694;2023-04-10T09:47:28;99609.44;;;15.92;51.66
33845;BME280;20145;43.118;25.694;2023-04-10T09:49:58;99604.44;;;16.14;50.75
33845;BME280;20145;43.118;25.694;2023-04-10T09:52:32;99605.81;;;15.70;51.19
33845;BME280;20145;43.118;25.694;2023-04-10T09:55:05;99600.28;;;16.09;49.76
33845;BME280;20145;43.118;25.694;2023-04-10T09:57:33;99600.03;;;16.43;50.22
33845;BME280;20145;43.118;25.694;2023-04-10T10:00:04;99602.25;;;16.00;50.03
33845;BME280;20145;43.118;25.694;2023-04-10T10:02:32;99594.13;;;15.83;50.22
33845;BME280;20145;43.118;25.694;2023-04-10T10:05:03;99593.91;;;15.91;49.96
33845;BME280;20145;43.118;25.694;2023-04-10T10:07:30;99596.66;;;16.41;49.97
33845;BME280;20145;43.118;25.694;2023-04-10T10:09:56;99607.84;;;16.69;47.80
33845;BME280;20145;43.118;25.694;2023-04-10T10:12:43;99593.63;;;16.26;47.92
33845;BME280;20145;43.118;25.694;2023-04-10T10:15:15;99581.44;;;16.54;46.79
33845;BME280;20145;43.118;25.694;2023-04-10T10:17:55;99588.50;;;16.23;46.32
33845;BME280;20145;43.118;25.694;2023-04-10T10:20:25;99584.16;;;16.77;46.11
33845;BME280;20145;43.118;25.694;2023-04-10T10:22:51;99585.22;;;16.97;45.84
33845;BME280;20145;43.118;25.694;2023-04-10T10:25:18;99592.88;;;16.49;44.59
33845;BME280;20145;43.118;25.694;2023-04-10T10:27:48;99581.50;;;16.25;46.21
33845;BME280;20145;43.118;25.694;2023-04-10T10:30:15;99586.94;;;16.18;46.24
33845;BME280;20145;43.118;25.694;2023-04-10T10:32:43;99572.78;;;16.26;46.57
33845;BME280;20145;43.118;25.694;2023-04-10T10:35:09;99569.38;;;15.70;49.00
33845;BME280;20145;43.118;25.694;2023-04-10T10:37:36;99568.94;;;15.54;49.52
33845;BME280;20145;43.118;25.694;2023-04-10T10:42:54;99565.72;;;15.16;51.08
33845;BME280;20145;43.118;25.694;2023-04-10T10:45:25;99561.28;;;15.20;51.39
33845;BME280;20145;43.118;25.694;2023-04-10T10:47:54;99564.53;;;15.57;50.07
33845;BME280;20145;43.118;25.694;2023-04-10T10:50:20;99561.88;;;15.59;47.39
33845;BME280;20145;43.118;25.694;2023-04-10T10:52:50;99569.25;;;15.43;47.75
33845;BME280;20145;43.118;25.694;2023-04-10T10:55:29;99562.09;;;15.51;48.76
33845;BME280;20145;43.118;25.694;2023-04-10T11:08:17;99542.50;;;15.39;49.41
33845;BME280;20145;43.118;25.694;2023-04-10T11:11:18;99544.53;;;15.88;49.17
33845;BME280;20145;43.118;25.694;2023-04-10T11:16:42;99539.38;;;15.28;49.55
33845;BME280;20145;43.118;25.694;2023-04-10T11:19:09;99521.91;;;15.61;48.69
33845;BME280;20145;43.118;25.694;2023-04-10T11:22:06;99531.16;;;16.00;47.21
33845;BME280;20145;43.118;25.694;2023-04-10T11:24:52;99521.63;;;15.72;45.84
33845;BME280;20145;43.118;25.694;2023-04-10T11:27:43;99526.09;;;15.66;46.22
33845;BME280;20145;43.118;25.694;2023-04-10T11:30:29;99522.44;;;15.74;45.50
33845;BME280;20145;43.118;25.694;2023-04-10T11:32:56;99525.53;;;16.12;44.99
33845;BME280;20145;43.118;25.694;2023-04-10T11:35:22;99510.09;;;16.08;42.90
33845;BME280;20145;43.118;25.694;2023-04-10T11:37:47;99508.25;;;16.36;42.21
33845;BME280;20145;43.118;25.694;2023-04-10T11:40:13;99508.59;;;16.25;41.21
33845;BME280;20145;43.118;25.694;2023-04-10T11:42:39;99504.78;;;15.54;42.99
33845;BME280;20145;43.118;25.694;2023-04-10T11:45:24;99509.53;;;15.71;43.54
33845;BME280;20145;43.118;25.694;2023-04-10T11:47:53;99506.16;;;15.94;42.45
33845;BME280;20145;43.118;25.694;2023-04-10T11:50:19;99491.31;;;15.71;43.42
33845;BME280;20145;43.118;25.694;2023-04-10T11:52:49;99498.81;;;15.80;45.28
33845;BME280;20145;43.118;25.694;2023-04-10T11:55:15;99495.59;;;15.72;46.46
33845;BME280;20145;43.118;25.694;2023-04-10T11:57:42;99486.84;;;15.47;46.93
33845;BME280;20145;43.118;25.694;2023-04-10T12:00:08;99481.16;;;15.34;48.50
33845;BME280;20145;43.118;25.694;2023-04-10T12:02:34;99477.78;;;15.58;48.10
33845;BME280;20145;43.118;25.694;2023-04-10T12:05:00;99478.03;;;15.79;46.28
33845;BME280;20145;43.118;25.694;2023-04-10T12:07:25;99467.53;;;15.54;48.03
33845;BME280;20145;43.118;25.694;2023-04-10T12:09:56;99476.03;;;15.87;48.87
33845;BME280;20145;43.118;25.694;2023-04-10T12:12:34;99463.41;;;16.01;48.54
33845;BME280;20145;43.118;25.694;2023-04-10T12:15:00;99461.75;;;16.25;47.63
33845;BME280;20145;43.118;25.694;2023-04-10T12:17:26;99466.91;;;16.02;49.30
33845;BME280;20145;43.118;25.694;2023-04-10T12:19:52;99454.63;;;16.05;47.74
33845;BME280;20145;43.118;25.694;2023-04-10T12:22:18;99452.38;;;15.95;48.11
33845;BME280;20145;43.118;25.694;2023-04-10T12:24:50;99455.31;;;16.36;47.40
33845;BME280;20145;43.118;25.694;2023-04-10T12:27:24;99448.47;;;16.33;46.15
33845;BME280;20145;43.118;25.694;2023-04-10T12:29:52;99450.16;;;16.09;45.77
33845;BME280;20145;43.118;25.694;2023-04-10T12:32:18;99441.03;;;15.96;45.78
33845;BME280;20145;43.118;25.694;2023-04-10T12:37:16;99439.41;;;16.18;44.38
33845;BME280;20145;43.118;25.694;2023-04-10T12:39:42;99437.41;;;15.75;45.23
33845;BME280;20145;43.118;25.694;2023-04-10T12:45:09;99425.06;;;15.81;45.57
33845;BME280;20145;43.118;25.694;2023-04-10T12:47:48;99424.31;;;15.78;47.21
33845;BME280;20145;43.118;25.694;2023-04-10T12:50:17;99430.81;;;15.91;46.17
33845;BME280;20145;43.118;25.694;2023-04-10T12:53:01;99431.13;;;16.07;47.27
33845;BME280;20145;43.118;25.694;2023-04-10T12:55:27;99429.00;;;16.18;45.74
33845;BME280;20145;43.118;25.694;2023-04-10T12:57:53;99422.28;;;16.61;45.31
33845;BME280;20145;43.118;25.694;2023-04-10T13:00:19;99425.34;;;16.49;44.44
33845;BME280;20145;43.118;25.694;2023-04-10T13:02:47;99419.25;;;16.48;44.93
33845;BME280;20145;43.118;25.694;2023-04-10T13:05:13;99414.72;;;16.79;44.57
33845;BME280;20145;43.118;25.694;2023-04-10T13:07:39;99416.72;;;16.70;44.30
33845;BME280;20145;43.118;25.694;2023-04-10T13:10:06;99411.34;;;16.77;44.07
33845;BME280;20145;43.118;25.694;2023-04-10T13:12:32;99413.75;;;16.58;44.80
33845;BME280;20145;43.118;25.694;2023-04-10T13:14:59;99396.44;;;16.32;45.42
33845;BME280;20145;43.118;25.694;2023-04-10T13:17:26;99406.69;;;16.60;44.72
33845;BME280;20145;43.118;25.694;2023-04-10T13:19:52;99398.84;;;16.85;45.08
33845;BME280;20145;43.118;25.694;2023-04-10T13:22:18;99401.91;;;16.96;44.23
33845;BME280;20145;43.118;25.694;2023-04-10T13:24:44;99398.09;;;17.05;44.64
33845;BME280;20145;43.118;25.694;2023-04-10T13:27:10;99399.78;;;16.35;45.58
33845;BME280;20145;43.118;25.694;2023-04-10T13:29:38;99405.34;;;15.46;44.50
33845;BME280;20145;43.118;25.694;2023-04-10T13:32:05;99385.19;;;15.00;46.62